createdAt,value
2023-01-06T00:00:20.215Z,93398.41
2023-01-06T00:03:03.492Z,93404.31
2023-01-06T00:05:47.649Z,93400.13
2023-01-06T00:08:30.551Z,93396.66
2023-01-06T00:11:15.217Z,93394.94
2023-01-06T00:13:57.888Z,93392.47
2023-01-06T00:16:40.697Z,93396.66
2023-01-06T00:19:23.497Z,93395.88
2023-01-06T00:22:07.713Z,93386.44
2023-01-06T00:24:50.499Z,93388.06
2023-01-06T00:27:34.031Z,93388.78
2023-01-06T00:30:17.041Z,93389.59
2023-01-06T00:33:00.590Z,93387.06
2023-01-06T00:35:43.424Z,93384.50
2023-01-06T00:38:27.701Z,93380.91
2023-01-06T00:41:26.977Z,93378.22
2023-01-06T00:44:09.870Z,93380.75
2023-01-06T00:46:52.740Z,93371.25
2023-01-06T00:49:37.709Z,93372.09
2023-01-06T00:52:21.622Z,93375.44
2023-01-06T00:55:07.116Z,93371.94
2023-01-06T00:57:53.005Z,93371.84
2023-01-06T01:00:35.958Z,93382.88
2023-01-06T01:03:18.749Z,93379.41
2023-01-06T01:06:03.796Z,93379.25
2023-01-06T01:08:46.583Z,93378.34
2023-01-06T01:11:48.674Z,93388.47
2023-01-06T01:14:31.568Z,93389.97
2023-01-06T01:17:16.470Z,93387.41
2023-01-06T01:20:00.901Z,93384.84
2023-01-06T01:22:44.343Z,93385.66
2023-01-06T01:25:27.210Z,93385.56
2023-01-06T01:28:11.375Z,93379.53
2023-01-06T01:31:00.421Z,93387.06
2023-01-06T01:33:43.550Z,93388.81
2023-01-06T01:36:26.341Z,93386.97
2023-01-06T01:39:09.676Z,93387.88
2023-01-06T01:41:53.749Z,93394.50
2023-01-06T01:45:04.947Z,93385.19
2023-01-06T01:47:52.272Z,93386.72
2023-01-06T01:50:39.641Z,93384.97
2023-01-06T01:53:25.012Z,93384.84
2023-01-06T01:56:11.924Z,93394.19
2023-01-06T01:58:57.885Z,93394.88
2023-01-06T02:01:42.274Z,93391.28
2023-01-06T02:04:27.007Z,93391.28
2023-01-06T02:07:11.129Z,93380.25
2023-01-06T02:10:01.564Z,93379.31
2023-01-06T02:12:50.606Z,93374.22
2023-01-06T02:15:35.487Z,93372.44
2023-01-06T02:18:36.687Z,93369.91
2023-01-06T02:21:47.983Z,93370.72
2023-01-06T02:24:59.252Z,93375.72
2023-01-06T02:28:17.961Z,93352.69
2023-01-06T02:31:51.802Z,93346.66
2023-01-06T02:34:49.627Z,93349.22
2023-01-06T02:37:43.761Z,93346.09
2023-01-06T02:40:44.357Z,93338.56
2023-01-06T02:43:37.906Z,93333.44
2023-01-06T02:46:40.514Z,93332.75
2023-01-06T02:49:31.916Z,93334.47
2023-01-06T02:52:22.314Z,93336.22
2023-01-06T02:55:11.633Z,93334.56
2023-01-06T02:58:00.637Z,93332.84
2023-01-06T03:00:48.236Z,93333.66
2023-01-06T03:03:37.483Z,93332.94
2023-01-06T03:06:26.576Z,93326.56
2023-01-06T03:09:10.036Z,93322.25
2023-01-06T03:12:05.054Z,93322.25
2023-01-06T03:14:52.509Z,93321.44
2023-01-06T03:17:35.575Z,93320.97
2023-01-06T03:20:20.049Z,93320.63
2023-01-06T03:23:04.699Z,93329.44
2023-01-06T03:25:47.772Z,93327.13
2023-01-06T03:28:30.763Z,93328.75
2023-01-06T03:31:18.876Z,93323.19
2023-01-06T03:34:08.300Z,93324.00
2023-01-06T03:36:59.824Z,93336.53
2023-01-06T03:39:54.701Z,93330.16
2023-01-06T03:43:01.045Z,93319.56
2023-01-06T03:45:52.052Z,93322.72
2023-01-06T03:48:49.999Z,93320.53
2023-01-06T03:51:44.558Z,93322.63
2023-01-06T03:54:39.712Z,93320.66
2023-01-06T03:57:28.640Z,93321.22
2023-01-06T04:00:15.477Z,93320.88
2023-01-06T04:03:03.521Z,93314.59
2023-01-06T04:05:46.356Z,93320.41
2023-01-06T04:08:29.571Z,93318.56
2023-01-06T04:11:33.342Z,93314.25
2023-01-06T04:14:16.620Z,93319.22
2023-01-06T04:16:59.526Z,93305.50
2023-01-06T04:19:43.694Z,93308.75
2023-01-06T04:22:27.397Z,93303.41
2023-01-06T04:25:10.716Z,93301.56
2023-01-06T04:27:55.859Z,93296.22
2023-01-06T04:30:40.227Z,93290.25
2023-01-06T04:33:23.158Z,93291.88
2023-01-06T04:36:09.978Z,93289.22
2023-01-06T04:38:55.439Z,93294.34
2023-01-06T04:41:38.363Z,93289.91
2023-01-06T04:44:21.233Z,93283.06
2023-01-06T04:47:05.821Z,93287.25
2023-01-06T04:49:48.450Z,93287.34
2023-01-06T04:52:31.315Z,93293.97
2023-01-06T04:55:14.131Z,93292.22
2023-01-06T04:57:57.135Z,93290.59
2023-01-06T05:00:39.934Z,93288.88
2023-01-06T05:03:24.146Z,93293.06
2023-01-06T05:06:09.826Z,93296.41
2023-01-06T05:08:52.686Z,93292.91
2023-01-06T05:11:35.573Z,93295.38
2023-01-06T05:14:21.233Z,93291.06
2023-01-06T05:17:04.429Z,93291.75
2023-01-06T05:19:48.631Z,93296.88
2023-01-06T05:22:31.475Z,93295.25
2023-01-06T05:25:14.298Z,93293.06
2023-01-06T05:27:57.140Z,93290.84
2023-01-06T05:30:39.959Z,93297.13
2023-01-06T05:33:22.791Z,93292.25
2023-01-06T05:36:09.580Z,93299.38
2023-01-06T05:38:53.145Z,93302.03
2023-01-06T05:41:35.937Z,93299.03
2023-01-06T05:44:20.712Z,93295.88
2023-01-06T05:47:03.678Z,93297.06
2023-01-06T05:49:46.981Z,93301.47
2023-01-06T05:52:31.247Z,93300.78
2023-01-06T05:55:14.039Z,93296.84
2023-01-06T05:57:56.962Z,93291.94
2023-01-06T06:00:39.779Z,93301.56
2023-01-06T06:03:22.810Z,93298.56
2023-01-06T06:06:07.552Z,93294.94
2023-01-06T06:08:51.525Z,93292.66
2023-01-06T06:11:34.360Z,93291.03
2023-01-06T06:14:17.323Z,93296.22
2023-01-06T06:17:00.316Z,93290.09
2023-01-06T06:19:43.105Z,93291.69
2023-01-06T06:22:25.918Z,93298.09
2023-01-06T06:25:10.799Z,93304.72
2023-01-06T06:27:58.687Z,93303.56
2023-01-06T06:30:41.509Z,93300.78
2023-01-06T06:33:24.324Z,93298.09
2023-01-06T06:36:11.666Z,93293.56
2023-01-06T06:38:55.745Z,93297.06
2023-01-06T06:41:39.916Z,93291.94
2023-01-06T06:44:22.773Z,93291.34
2023-01-06T06:47:05.695Z,93286.47
2023-01-06T06:49:48.547Z,93292.41
2023-01-06T06:52:31.358Z,93298.31
2023-01-06T06:55:14.232Z,93292.28
2023-01-06T06:57:58.417Z,93298.09
2023-01-06T07:00:41.261Z,93293.56
2023-01-06T07:03:25.286Z,93297.66
2023-01-06T07:06:10.026Z,93291.72
2023-01-06T07:08:52.684Z,93300.44
2023-01-06T07:11:35.489Z,93295.34
2023-01-06T07:14:19.663Z,93290.00
2023-01-06T07:17:02.975Z,93301.94
2023-01-06T07:19:45.964Z,93297.53
2023-01-06T07:22:28.847Z,93294.50
2023-01-06T07:25:11.980Z,93305.31
2023-01-06T07:27:55.579Z,93305.75
2023-01-06T07:30:39.770Z,93304.34
2023-01-06T07:33:23.149Z,93304.50
2023-01-06T07:36:06.833Z,93306.13
2023-01-06T07:38:49.644Z,93307.84
2023-01-06T07:41:32.812Z,93310.03
2023-01-06T07:44:18.015Z,93302.06
2023-01-06T07:47:02.356Z,93309.38
2023-01-06T07:49:45.192Z,93309.25
2023-01-06T07:52:27.987Z,93313.06
2023-01-06T07:55:11.236Z,93309.25
2023-01-06T07:57:54.412Z,93306.69
2023-01-06T08:00:38.297Z,93298.91
2023-01-06T08:03:22.611Z,93301.47
2023-01-06T08:06:09.917Z,93296.34
2023-01-06T08:08:52.846Z,93281.69
2023-01-06T08:11:35.693Z,93280.41
2023-01-06T08:14:18.603Z,93286.47
2023-01-06T08:17:01.637Z,93297.72
2023-01-06T08:19:45.872Z,93301.81
2023-01-06T08:22:28.666Z,93298.91
2023-01-06T08:25:11.838Z,93297.97
2023-01-06T08:27:54.633Z,93303.78
2023-01-06T08:30:40.185Z,93301.00
2023-01-06T08:33:24.126Z,93298.16
2023-01-06T08:36:10.173Z,93294.59
2023-01-06T08:38:53.433Z,93290.97
2023-01-06T08:41:36.321Z,93297.56
2023-01-06T08:44:19.399Z,93295.72
2023-01-06T08:47:02.235Z,93299.88
2023-01-06T08:49:45.033Z,93302.59
2023-01-06T08:52:29.214Z,93308.63
2023-01-06T08:55:12.074Z,93299.47
2023-01-06T08:57:55.275Z,93302.81
2023-01-06T09:00:40.644Z,93298.53
2023-01-06T09:03:23.758Z,93300.03
2023-01-06T09:06:07.432Z,93308.28
2023-01-06T09:08:51.637Z,93297.94
2023-01-06T09:11:34.587Z,93291.56
2023-01-06T09:14:17.376Z,93306.22
2023-01-06T09:17:00.203Z,93299.94
2023-01-06T09:19:43.027Z,93298.63
2023-01-06T09:22:25.858Z,93286.06
2023-01-06T09:25:10.388Z,93289.22
2023-01-06T09:27:53.199Z,93297.84
2023-01-06T09:30:36.009Z,93293.75
2023-01-06T09:33:18.941Z,93295.16
2023-01-06T09:36:01.970Z,93283.19
2023-01-06T09:38:44.809Z,93293.75
2023-01-06T09:41:51.356Z,93281.28
2023-01-06T09:44:37.221Z,93289.16
2023-01-06T09:47:26.062Z,93283.41
2023-01-06T09:50:15.663Z,93289.56
2023-01-06T09:53:03.076Z,93282.19
2023-01-06T09:55:49.047Z,93281.72
2023-01-06T09:58:38.297Z,93281.34
2023-01-06T10:01:28.958Z,93273.97
2023-01-06T10:04:17.449Z,93271.03
2023-01-06T10:07:15.631Z,93262.16
2023-01-06T10:10:08.537Z,93255.88
2023-01-06T10:13:03.251Z,93258.28
2023-01-06T10:15:53.009Z,93262.13
2023-01-06T10:18:44.729Z,93261.72
2023-01-06T10:21:34.962Z,93263.13
2023-01-06T10:24:30.074Z,93266.63
2023-01-06T10:27:24.727Z,93263.19
2023-01-06T10:30:18.751Z,93278.06
2023-01-06T10:33:03.082Z,93282.09
2023-01-06T10:35:45.936Z,93270.94
2023-01-06T10:38:34.912Z,93258.13
2023-01-06T10:41:26.630Z,93264.88
2023-01-06T10:44:11.658Z,93261.63
2023-01-06T10:46:54.527Z,93251.38
2023-01-06T10:49:38.983Z,93255.56
2023-01-06T10:52:23.632Z,93259.63
2023-01-06T10:55:06.889Z,93264.75
2023-01-06T10:57:52.134Z,93267.19
2023-01-06T11:00:35.361Z,93270.44
2023-01-06T11:03:32.996Z,93265.31
2023-01-06T11:06:26.062Z,93266.94
2023-01-06T11:09:22.933Z,93264.47
2023-01-06T11:12:12.979Z,93267.84
2023-01-06T11:14:59.716Z,93268.53
2023-01-06T11:17:47.041Z,93266.66
2023-01-06T11:20:32.608Z,93253.84
2023-01-06T11:23:23.099Z,93259.53
2023-01-06T11:26:13.814Z,93257.41
2023-01-06T11:28:56.899Z,93245.91
2023-01-06T11:31:39.795Z,93239.59
2023-01-06T11:34:24.951Z,93233.97
2023-01-06T11:37:07.797Z,93233.31
2023-01-06T11:40:00.421Z,93236.00
2023-01-06T11:42:56.028Z,93228.34
2023-01-06T11:45:42.007Z,93229.44
2023-01-06T11:48:29.530Z,93233.06
2023-01-06T11:51:12.795Z,93224.97
2023-01-06T11:53:58.086Z,93223.66
2023-01-06T11:56:42.247Z,93204.59
2023-01-06T11:59:28.801Z,93189.22
2023-01-06T12:02:18.915Z,93191.63
2023-01-06T12:05:07.300Z,93190.44
2023-01-06T12:07:53.544Z,93174.66
2023-01-06T12:10:39.164Z,93180.88
2023-01-06T12:13:23.803Z,93183.41
2023-01-06T12:16:09.329Z,93177.63
2023-01-06T12:18:52.385Z,93180.34
2023-01-06T12:21:36.669Z,93178.41
2023-01-06T12:24:22.617Z,93174.09
2023-01-06T12:27:06.722Z,93175.31
2023-01-06T12:29:52.815Z,93172.47
2023-01-06T12:32:40.014Z,93166.38
2023-01-06T12:35:26.588Z,93175.84
2023-01-06T12:38:22.787Z,93176.25
2023-01-06T12:41:13.671Z,93172.06
2023-01-06T12:44:04.526Z,93173.41
2023-01-06T12:46:55.723Z,93176.38
2023-01-06T12:49:43.220Z,93180.69
2023-01-06T12:52:32.078Z,93188.22
2023-01-06T12:55:17.995Z,93181.59
2023-01-06T12:58:08.729Z,93185.78
2023-01-06T13:00:55.794Z,93189.44
2023-01-06T13:04:26.692Z,93191.59
2023-01-06T13:07:21.392Z,93187.16
2023-01-06T13:10:16.911Z,93188.22
2023-01-06T13:13:28.808Z,93191.09
2023-01-06T13:16:20.079Z,93196.22
2023-01-06T13:19:15.920Z,93194.06
2023-01-06T13:22:02.573Z,93193.53
2023-01-06T13:25:03.953Z,93191.38
2023-01-06T13:27:59.667Z,93187.72
2023-01-06T13:31:21.188Z,93186.66
2023-01-06T13:34:24.705Z,93190.31
2023-01-06T13:37:22.126Z,93198.97
2023-01-06T13:40:11.441Z,93209.50
2023-01-06T13:42:59.553Z,93198.56
2023-01-06T13:45:47.465Z,93212.34
2023-01-06T13:48:33.488Z,93213.97
2023-01-06T13:51:19.364Z,93210.56
2023-01-06T13:54:04.320Z,93214.91
2023-01-06T13:56:47.186Z,93214.91
2023-01-06T13:59:29.970Z,93219.34
2023-01-06T14:02:48.296Z,93212.75
2023-01-06T14:05:57.411Z,93223.97
2023-01-06T14:08:48.890Z,93218.13
2023-01-06T14:11:35.308Z,93216.50
2023-01-06T14:14:27.065Z,93220.25
2023-01-06T14:17:29.541Z,93211.22
2023-01-06T14:20:27.324Z,93214.06
2023-01-06T14:23:22.575Z,93210.00
2023-01-06T14:26:06.033Z,93204.47
2023-01-06T14:28:50.173Z,93209.88
2023-01-06T14:31:41.863Z,93211.59
2023-01-06T14:34:25.904Z,93203.09
2023-01-06T14:37:14.341Z,93205.66
2023-01-06T14:39:57.888Z,93203.50
2023-01-06T14:42:44.921Z,93202.00
2023-01-06T14:45:34.907Z,93207.28
2023-01-06T14:48:22.167Z,93197.94
2023-01-06T14:51:05.932Z,93201.59
2023-01-06T14:53:54.376Z,93193.34
2023-01-06T14:56:38.125Z,93185.25
2023-01-06T14:59:22.656Z,93188.09
2023-01-06T15:02:16.981Z,93187.53
2023-01-06T15:05:00.164Z,93191.03
2023-01-06T15:07:57.389Z,93193.03
2023-01-06T15:10:42.962Z,93204.13
2023-01-06T15:13:30.400Z,93213.69
2023-01-06T15:16:21.704Z,93212.22
2023-01-06T15:19:09.142Z,93205.56
2023-01-06T15:21:54.219Z,93207.34
2023-01-06T15:24:41.645Z,93213.25
2023-01-06T15:27:24.556Z,93208.28
2023-01-06T15:30:18.115Z,93227.00
2023-01-06T15:33:03.823Z,93229.56
2023-01-06T15:35:48.614Z,93236.72
2023-01-06T15:38:34.859Z,93229.16
2023-01-06T15:41:31.849Z,93219.28
2023-01-06T15:44:33.615Z,93224.81
2023-01-06T15:47:24.460Z,93227.50
2023-01-06T15:50:10.503Z,93222.50
2023-01-06T15:52:57.045Z,93230.19
2023-01-06T15:55:44.215Z,93236.94
2023-01-06T15:58:30.305Z,93227.63
2023-01-06T16:01:16.119Z,93237.75
2023-01-06T16:04:02.947Z,93247.06
2023-01-06T16:06:45.908Z,93245.94
2023-01-06T16:09:37.800Z,93248.75
2023-01-06T16:12:21.139Z,93247.69
2023-01-06T16:15:45.092Z,93240.47
2023-01-06T16:18:31.590Z,93247.63
2023-01-06T16:21:18.369Z,93262.72
2023-01-06T16:24:03.362Z,93252.72
2023-01-06T16:26:53.386Z,93250.31
2023-01-06T16:29:38.279Z,93258.00
2023-01-06T16:32:24.464Z,93262.47
2023-01-06T16:35:13.452Z,93263.06
2023-01-06T16:37:56.405Z,93275.84
2023-01-06T16:40:39.196Z,93272.59
2023-01-06T16:43:23.403Z,93275.09
2023-01-06T16:46:13.977Z,93283.22
2023-01-06T16:48:57.245Z,93277.41
2023-01-06T16:51:40.727Z,93282.41
2023-01-06T16:54:23.770Z,93283.22
2023-01-06T16:57:10.285Z,93283.22
2023-01-06T16:59:54.439Z,93282.66
2023-01-06T17:02:38.278Z,93283.03
2023-01-06T17:05:26.742Z,93282.88
2023-01-06T17:08:14.249Z,93285.59
2023-01-06T17:10:57.648Z,93292.25
2023-01-06T17:13:45.900Z,93300.25
2023-01-06T17:16:34.573Z,93295.97
2023-01-06T17:19:20.794Z,93291.09
2023-01-06T17:22:13.936Z,93295.28
2023-01-06T17:25:02.011Z,93294.44
2023-01-06T17:27:45.992Z,93297.59
2023-01-06T17:30:28.840Z,93305.13
2023-01-06T17:33:13.430Z,93311.88
2023-01-06T17:35:57.272Z,93307.56
2023-01-06T17:38:41.369Z,93310.94
2023-01-06T17:41:24.268Z,93307.56
2023-01-06T17:44:14.426Z,93312.56
2023-01-06T17:46:57.286Z,93311.63
2023-01-06T17:49:41.856Z,93313.38
2023-01-06T17:52:30.583Z,93317.56
2023-01-06T17:55:44.794Z,93312.69
2023-01-06T17:58:30.352Z,93309.31
2023-01-06T18:01:17.896Z,93317.09
2023-01-06T18:04:01.017Z,93319.00
2023-01-06T18:06:52.601Z,93323.06
2023-01-06T18:09:35.755Z,93329.91
2023-01-06T18:12:18.523Z,93334.22
2023-01-06T18:15:03.503Z,93336.00
2023-01-06T18:17:46.260Z,93338.56
2023-01-06T18:20:29.881Z,93336.94
2023-01-06T18:23:19.598Z,93341.22
2023-01-06T18:26:07.678Z,93344.94
2023-01-06T18:28:50.594Z,93343.22
2023-01-06T18:31:36.698Z,93343.22
2023-01-06T18:34:33.553Z,93348.34
2023-01-06T18:37:16.457Z,93350.75
2023-01-06T18:40:03.167Z,93346.84
2023-01-06T18:42:47.210Z,93351.00
2023-01-06T18:45:34.885Z,93351.00
2023-01-06T18:48:24.931Z,93356.94
2023-01-06T18:51:17.353Z,93355.09
2023-01-06T18:54:00.315Z,93348.56
2023-01-06T18:56:44.601Z,93352.75
2023-01-06T18:59:28.766Z,93351.97
2023-01-06T19:02:28.089Z,93350.34
2023-01-06T19:05:12.656Z,93355.56
2023-01-06T19:07:58.023Z,93349.75
2023-01-06T19:10:40.840Z,93354.88
2023-01-06T19:13:28.271Z,93352.44
2023-01-06T19:16:31.721Z,93348.38
2023-01-06T19:19:25.630Z,93346.75
2023-01-06T19:22:17.638Z,93348.72
2023-01-06T19:25:03.481Z,93343.59
2023-01-06T19:27:49.260Z,93339.56
2023-01-06T19:30:40.897Z,93340.84
2023-01-06T19:33:34.805Z,93347.00
2023-01-06T19:36:43.167Z,93344.44
2023-01-06T19:39:31.624Z,93342.84
2023-01-06T19:42:18.846Z,93338.91
2023-01-06T19:45:10.025Z,93343.19
2023-01-06T19:47:54.190Z,93340.06
2023-01-06T19:50:37.011Z,93340.91
2023-01-06T19:53:35.797Z,93344.50
2023-01-06T19:56:20.991Z,93339.38
2023-01-06T19:59:06.739Z,93340.31
2023-01-06T20:01:55.185Z,93349.59
2023-01-06T20:04:39.391Z,93353.78
2023-01-06T20:07:22.231Z,93344.38
2023-01-06T20:10:05.538Z,93340.91
2023-01-06T20:12:48.628Z,93345.06
2023-01-06T20:15:31.473Z,93349.13
2023-01-06T20:18:14.367Z,93350.06
2023-01-06T20:20:58.512Z,93348.44
2023-01-06T20:23:41.320Z,93349.38
2023-01-06T20:26:24.140Z,93357.06
2023-01-06T20:29:07.011Z,93363.09
2023-01-06T20:31:49.908Z,93361.59
2023-01-06T20:34:32.822Z,93358.22
2023-01-06T20:37:17.024Z,93366.72
2023-01-06T20:40:00.637Z,93364.25
2023-01-06T20:42:43.420Z,93365.19
2023-01-06T20:45:26.225Z,93364.25
2023-01-06T20:48:09.396Z,93361.69
2023-01-06T20:50:53.347Z,93361.69
2023-01-06T20:53:37.640Z,93359.16
2023-01-06T20:56:20.438Z,93363.81
2023-01-06T20:59:03.238Z,93357.78
2023-01-06T21:01:46.168Z,93351.84
2023-01-06T21:04:29.180Z,93356.81
2023-01-06T21:07:12.018Z,93356.03
2023-01-06T21:09:56.876Z,93350.22
2023-01-06T21:12:39.901Z,93351.13
2023-01-06T21:15:22.757Z,93350.56
2023-01-06T21:18:05.720Z,93350.13
2023-01-06T21:20:49.642Z,93351.28
2023-01-06T21:23:32.449Z,93347.59
2023-01-06T21:26:16.604Z,93348.84
2023-01-06T21:28:59.416Z,93342.94
2023-01-06T21:31:43.830Z,93354.66
2023-01-06T21:34:26.618Z,93350.25
2023-01-06T21:37:09.484Z,93354.44
2023-01-06T21:39:52.275Z,93351.75
2023-01-06T21:42:54.416Z,93360.25
2023-01-06T21:45:37.616Z,93356.75
2023-01-06T21:48:22.399Z,93351.50
2023-01-06T21:51:05.531Z,93353.13
2023-01-06T21:53:48.457Z,93348.81
2023-01-06T21:56:31.494Z,93351.50
2023-01-06T21:59:15.766Z,93349.66
2023-01-06T22:01:58.754Z,93353.13
2023-01-06T22:04:41.701Z,93353.81
2023-01-06T22:07:24.779Z,93352.06
2023-01-06T22:10:09.458Z,93360.56
2023-01-06T22:12:53.166Z,93355.56
2023-01-06T22:15:37.908Z,93357.19
2023-01-06T22:18:20.941Z,93357.31
2023-01-06T22:21:04.313Z,93354.75
2023-01-06T22:23:47.301Z,93357.41
2023-01-06T22:26:30.132Z,93359.97
2023-01-06T22:29:13.023Z,93364.28
2023-01-06T22:32:02.102Z,93361.16
2023-01-06T22:34:44.928Z,93357.91
2023-01-06T22:37:27.749Z,93363.03
2023-01-06T22:40:12.397Z,93364.31
2023-01-06T22:42:56.809Z,93365.25
2023-01-06T22:45:39.629Z,93364.56
2023-01-06T22:48:24.011Z,93360.22
2023-01-06T22:51:07.587Z,93365.94
2023-01-06T22:53:50.426Z,93357.22
2023-01-06T22:56:33.249Z,93349.31
2023-01-06T22:59:16.395Z,93349.19
2023-01-06T23:01:59.408Z,93349.31
2023-01-06T23:04:43.594Z,93348.47
2023-01-06T23:07:26.420Z,93339.88
2023-01-06T23:10:10.648Z,93343.97
2023-01-06T23:12:53.831Z,93334.53
2023-01-06T23:15:36.695Z,93333.47
2023-01-06T23:18:19.602Z,93331.59
2023-01-06T23:21:05.837Z,93338.47
2023-01-06T23:23:48.725Z,93335.59
2023-01-06T23:26:34.002Z,93331.88
2023-01-06T23:29:16.906Z,93337.34
2023-01-06T23:31:59.721Z,93335.84
2023-01-06T23:34:42.520Z,93339.09
2023-01-06T23:37:26.687Z,93344.19
2023-01-06T23:40:10.663Z,93332.38
2023-01-06T23:42:53.976Z,93331.19
2023-01-06T23:45:36.790Z,93335.50
2023-01-06T23:48:19.668Z,93331.53
2023-01-06T23:51:03.179Z,93331.53
2023-01-06T23:53:47.662Z,93335.72
2023-01-06T23:56:32.240Z,93334.66
2023-01-06T23:59:15.305Z,93330.38
